sensor_id;sensor_type;location;lat;lon;timestamp;temperature;humidity
23803;DHT22;12082;51.786;6.018;2023-04-25T00:02:24;5.70;99.90
23803;DHT22;12082;51.786;6.018;2023-04-25T00:04:50;5.70;99.90
23803;DHT22;12082;51.786;6.018;2023-04-25T00:07:16;5.80;99.90
23803;DHT22;12082;51.786;6.018;2023-04-25T00:09:42;5.80;99.90
23803;DHT22;12082;51.786;6.018;2023-04-25T00:12:07;5.80;99.90
23803;DHT22;12082;51.786;6.018;2023-04-25T00:14:33;5.80;99.90
23803;DHT22;12082;51.786;6.018;2023-04-25T00:16:59;5.80;99.90
23803;DHT22;12082;51.786;6.018;2023-04-25T00:19:25;5.80;99.90
23803;DHT22;12082;51.786;6.018;2023-04-25T00:21:52;5.80;99.90
23803;DHT22;12082;51.786;6.018;2023-04-25T00:24:19;5.80;99.90
23803;DHT22;12082;51.786;6.018;2023-04-25T00:26:44;5.90;99.90
23803;DHT22;12082;51.786;6.018;2023-04-25T00:29:10;5.80;99.90
23803;DHT22;12082;51.786;6.018;2023-04-25T00:31:35;5.80;99.90
23803;DHT22;12082;51.786;6.018;2023-04-25T00:34:01;5.80;99.90
23803;DHT22;12082;51.786;6.018;2023-04-25T00:36:27;5.70;99.90
23803;DHT22;12082;51.786;6.018;2023-04-25T00:38:53;5.60;99.90
23803;DHT22;12082;51.786;6.018;2023-04-25T00:41:20;5.60;99.90
23803;DHT22;12082;51.786;6.018;2023-04-25T00:43:48;5.60;99.90
23803;DHT22;12082;51.786;6.018;2023-04-25T00:46:13;5.60;99.90
23803;DHT22;12082;51.786;6.018;2023-04-25T00:48:39;5.50;99.90
23803;DHT22;12082;51.786;6.018;2023-04-25T00:51:04;5.50;99.90
23803;DHT22;12082;51.786;6.018;2023-04-25T00:53:30;5.40;99.90
23803;DHT22;12082;51.786;6.018;2023-04-25T00:55:57;5.40;99.90
23803;DHT22;12082;51.786;6.018;2023-04-25T00:58:23;5.40;99.90
23803;DHT22;12082;51.786;6.018;2023-04-25T01:00:51;5.30;99.90
23803;DHT22;12082;51.786;6.018;2023-04-25T01:03:17;5.40;99.90
23803;DHT22;12082;51.786;6.018;2023-04-25T01:05:45;5.30;99.90
23803;DHT22;12082;51.786;6.018;2023-04-25T01:08:11;5.40;99.90
23803;DHT22;12082;51.786;6.018;2023-04-25T01:10:37;5.50;99.90
23803;DHT22;12082;51.786;6.018;2023-04-25T01:13:03;5.50;99.90
23803;DHT22;12082;51.786;6.018;2023-04-25T01:15:28;5.50;99.90
23803;DHT22;12082;51.786;6.018;2023-04-25T01:17:54;5.50;99.90
23803;DHT22;12082;51.786;6.018;2023-04-25T01:20:22;5.60;99.90
23803;DHT22;12082;51.786;6.018;2023-04-25T01:22:52;5.50;99.90
23803;DHT22;12082;51.786;6.018;2023-04-25T01:25:18;5.50;99.90
23803;DHT22;12082;51.786;6.018;2023-04-25T01:27:44;5.50;99.90
23803;DHT22;12082;51.786;6.018;2023-04-25T01:30:10;5.50;99.90
23803;DHT22;12082;51.786;6.018;2023-04-25T01:32:36;5.50;99.90
23803;DHT22;12082;51.786;6.018;2023-04-25T01:35:09;5.50;99.90
23803;DHT22;12082;51.786;6.018;2023-04-25T01:37:40;5.50;99.90
23803;DHT22;12082;51.786;6.018;2023-04-25T01:40:07;5.50;99.90
23803;DHT22;12082;51.786;6.018;2023-04-25T01:42:34;5.50;99.90
23803;DHT22;12082;51.786;6.018;2023-04-25T01:45:00;5.60;99.90
23803;DHT22;12082;51.786;6.018;2023-04-25T01:47:25;5.50;99.90
23803;DHT22;12082;51.786;6.018;2023-04-25T01:49:51;5.60;99.90
23803;DHT22;12082;51.786;6.018;2023-04-25T01:52:17;5.50;99.90
23803;DHT22;12082;51.786;6.018;2023-04-25T01:54:42;5.50;99.90
23803;DHT22;12082;51.786;6.018;2023-04-25T01:57:10;5.50;99.90
23803;DHT22;12082;51.786;6.018;2023-04-25T01:59:36;5.50;99.90
23803;DHT22;12082;51.786;6.018;2023-04-25T02:02:02;5.50;99.90
23803;DHT22;12082;51.786;6.018;2023-04-25T02:04:29;5.40;99.90
23803;DHT22;12082;51.786;6.018;2023-04-25T02:06:55;5.50;99.90
23803;DHT22;12082;51.786;6.018;2023-04-25T02:09:21;5.50;99.90
23803;DHT22;12082;51.786;6.018;2023-04-25T02:11:47;5.50;99.90
23803;DHT22;12082;51.786;6.018;2023-04-25T02:14:12;5.40;99.90
23803;DHT22;12082;51.786;6.018;2023-04-25T02:16:38;5.40;99.90
23803;DHT22;12082;51.786;6.018;2023-04-25T02:19:05;5.40;99.90
23803;DHT22;12082;51.786;6.018;2023-04-25T02:21:31;5.40;99.90
23803;DHT22;12082;51.786;6.018;2023-04-25T02:23:57;5.30;99.90
23803;DHT22;12082;51.786;6.018;2023-04-25T02:26:22;5.30;99.90
23803;DHT22;12082;51.786;6.018;2023-04-25T02:28:49;5.30;99.90
23803;DHT22;12082;51.786;6.018;2023-04-25T02:31:16;5.30;99.90
23803;DHT22;12082;51.786;6.018;2023-04-25T02:33:41;5.20;99.90
23803;DHT22;12082;51.786;6.018;2023-04-25T02:36:07;5.20;99.90
23803;DHT22;12082;51.786;6.018;2023-04-25T02:38:33;5.20;99.90
23803;DHT22;12082;51.786;6.018;2023-04-25T02:40:58;5.10;99.90
23803;DHT22;12082;51.786;6.018;2023-04-25T02:43:24;5.00;99.90
23803;DHT22;12082;51.786;6.018;2023-04-25T02:45:49;5.00;99.90
23803;DHT22;12082;51.786;6.018;2023-04-25T02:48:15;4.90;99.90
23803;DHT22;12082;51.786;6.018;2023-04-25T02:50:40;4.80;99.90
23803;DHT22;12082;51.786;6.018;2023-04-25T02:53:06;4.80;99.90
23803;DHT22;12082;51.786;6.018;2023-04-25T02:55:32;4.70;99.90
23803;DHT22;12082;51.786;6.018;2023-04-25T02:57:57;4.60;99.90
23803;DHT22;12082;51.786;6.018;2023-04-25T03:00:23;4.60;99.90
23803;DHT22;12082;51.786;6.018;2023-04-25T03:02:48;4.60;99.90
23803;DHT22;12082;51.786;6.018;2023-04-25T03:05:14;4.50;99.90
23803;DHT22;12082;51.786;6.018;2023-04-25T03:07:39;4.50;99.90
23803;DHT22;12082;51.786;6.018;2023-04-25T03:10:08;4.40;99.90
23803;DHT22;12082;51.786;6.018;2023-04-25T03:12:34;4.30;99.90
23803;DHT22;12082;51.786;6.018;2023-04-25T03:14:59;4.30;99.90
23803;DHT22;12082;51.786;6.018;2023-04-25T03:17:25;4.30;99.90
23803;DHT22;12082;51.786;6.018;2023-04-25T03:19:50;4.20;99.90
23803;DHT22;12082;51.786;6.018;2023-04-25T03:22:16;4.10;99.90
23803;DHT22;12082;51.786;6.018;2023-04-25T03:24:41;4.10;99.90
23803;DHT22;12082;51.786;6.018;2023-04-25T03:27:07;4.00;99.90
23803;DHT22;12082;51.786;6.018;2023-04-25T03:29:33;4.00;99.90
23803;DHT22;12082;51.786;6.018;2023-04-25T03:31:58;4.00;99.90
23803;DHT22;12082;51.786;6.018;2023-04-25T03:34:24;4.00;99.90
23803;DHT22;12082;51.786;6.018;2023-04-25T03:36:49;4.00;99.90
23803;DHT22;12082;51.786;6.018;2023-04-25T03:39:15;4.00;99.90
23803;DHT22;12082;51.786;6.018;2023-04-25T03:41:41;4.00;99.90
23803;DHT22;12082;51.786;6.018;2023-04-25T03:44:06;4.00;99.90
23803;DHT22;12082;51.786;6.018;2023-04-25T03:46:32;3.90;99.90
23803;DHT22;12082;51.786;6.018;2023-04-25T03:48:57;3.90;99.90
23803;DHT22;12082;51.786;6.018;2023-04-25T03:51:24;3.80;99.90
23803;DHT22;12082;51.786;6.018;2023-04-25T03:53:51;3.80;99.90
23803;DHT22;12082;51.786;6.018;2023-04-25T03:56:17;3.80;99.90
23803;DHT22;12082;51.786;6.018;2023-04-25T03:58:42;3.70;99.90
23803;DHT22;12082;51.786;6.018;2023-04-25T04:01:08;3.70;99.90
23803;DHT22;12082;51.786;6.018;2023-04-25T04:03:34;3.70;99.90
23803;DHT22;12082;51.786;6.018;2023-04-25T04:06:04;3.70;99.90
23803;DHT22;12082;51.786;6.018;2023-04-25T04:08:31;3.70;99.90
23803;DHT22;12082;51.786;6.018;2023-04-25T04:11:00;3.80;99.90
23803;DHT22;12082;51.786;6.018;2023-04-25T04:13:29;3.80;99.90
23803;DHT22;12082;51.786;6.018;2023-04-25T04:15:55;3.80;99.90
23803;DHT22;12082;51.786;6.018;2023-04-25T04:18:21;3.80;99.90
23803;DHT22;12082;51.786;6.018;2023-04-25T04:20:47;3.80;99.90
23803;DHT22;12082;51.786;6.018;2023-04-25T04:23:12;3.90;99.90
23803;DHT22;12082;51.786;6.018;2023-04-25T04:25:38;3.90;99.90
23803;DHT22;12082;51.786;6.018;2023-04-25T04:28:05;3.90;99.90
23803;DHT22;12082;51.786;6.018;2023-04-25T04:30:31;3.90;99.90
23803;DHT22;12082;51.786;6.018;2023-04-25T04:32:57;3.90;99.90
23803;DHT22;12082;51.786;6.018;2023-04-25T04:35:23;4.00;99.90
23803;DHT22;12082;51.786;6.018;2023-04-25T04:37:50;4.00;99.90
23803;DHT22;12082;51.786;6.018;2023-04-25T04:40:16;4.00;99.90
23803;DHT22;12082;51.786;6.018;2023-04-25T04:42:43;4.00;99.90
23803;DHT22;12082;51.786;6.018;2023-04-25T04:45:10;4.00;99.90
23803;DHT22;12082;51.786;6.018;2023-04-25T04:47:36;3.90;99.90
23803;DHT22;12082;51.786;6.018;2023-04-25T04:50:06;3.90;99.90
23803;DHT22;12082;51.786;6.018;2023-04-25T04:52:34;3.90;99.90
23803;DHT22;12082;51.786;6.018;2023-04-25T04:55:01;3.90;99.90
23803;DHT22;12082;51.786;6.018;2023-04-25T04:57:27;3.80;99.90
23803;DHT22;12082;51.786;6.018;2023-04-25T04:59:53;3.80;99.90
23803;DHT22;12082;51.786;6.018;2023-04-25T05:02:18;3.80;99.90
23803;DHT22;12082;51.786;6.018;2023-04-25T05:04:44;3.90;99.90
23803;DHT22;12082;51.786;6.018;2023-04-25T05:07:10;3.90;99.90
23803;DHT22;12082;51.786;6.018;2023-04-25T05:09:35;3.90;99.90
23803;DHT22;12082;51.786;6.018;2023-04-25T05:12:01;4.00;99.90
23803;DHT22;12082;51.786;6.018;2023-04-25T05:14:27;4.00;99.90
23803;DHT22;12082;51.786;6.018;2023-04-25T05:16:53;4.10;99.90
23803;DHT22;12082;51.786;6.018;2023-04-25T05:19:18;4.20;99.90
23803;DHT22;12082;51.786;6.018;2023-04-25T05:21:44;4.20;99.90
23803;DHT22;12082;51.786;6.018;2023-04-25T05:24:09;4.30;99.90
23803;DHT22;12082;51.786;6.018;2023-04-25T05:26:35;4.30;99.90
23803;DHT22;12082;51.786;6.018;2023-04-25T05:29:00;4.40;99.90
23803;DHT22;12082;51.786;6.018;2023-04-25T05:31:26;4.50;99.90
23803;DHT22;12082;51.786;6.018;2023-04-25T05:33:52;4.60;99.90
23803;DHT22;12082;51.786;6.018;2023-04-25T05:36:19;4.70;99.90
23803;DHT22;12082;51.786;6.018;2023-04-25T05:38:45;4.80;99.90
23803;DHT22;12082;51.786;6.018;2023-04-25T05:41:10;4.90;99.90
23803;DHT22;12082;51.786;6.018;2023-04-25T05:43:36;5.10;99.90
23803;DHT22;12082;51.786;6.018;2023-04-25T05:46:01;5.20;99.90
23803;DHT22;12082;51.786;6.018;2023-04-25T05:48:27;5.40;99.90
23803;DHT22;12082;51.786;6.018;2023-04-25T05:50:52;5.60;99.90
23803;DHT22;12082;51.786;6.018;2023-04-25T05:53:19;6.70;99.90
23803;DHT22;12082;51.786;6.018;2023-04-25T05:55:45;5.90;99.90
23803;DHT22;12082;51.786;6.018;2023-04-25T05:58:11;6.10;99.90
23803;DHT22;12082;51.786;6.018;2023-04-25T06:00:37;6.20;99.90
23803;DHT22;12082;51.786;6.018;2023-04-25T06:03:03;6.30;99.90
23803;DHT22;12082;51.786;6.018;2023-04-25T06:05:28;6.50;99.90
23803;DHT22;12082;51.786;6.018;2023-04-25T06:07:54;6.60;99.90
23803;DHT22;12082;51.786;6.018;2023-04-25T06:10:19;6.70;99.90
23803;DHT22;12082;51.786;6.018;2023-04-25T06:12:45;6.80;99.90
23803;DHT22;12082;51.786;6.018;2023-04-25T06:15:10;7.30;99.90
23803;DHT22;12082;51.786;6.018;2023-04-25T06:17:36;7.70;99.90
23803;DHT22;12082;51.786;6.018;2023-04-25T06:20:02;7.90;99.90
23803;DHT22;12082;51.786;6.018;2023-04-25T06:22:29;8.00;99.90
23803;DHT22;12082;51.786;6.018;2023-04-25T06:24:54;7.90;99.90
23803;DHT22;12082;51.786;6.018;2023-04-25T06:27:22;8.00;99.90
23803;DHT22;12082;51.786;6.018;2023-04-25T06:29:48;8.10;99.90
23803;DHT22;12082;51.786;6.018;2023-04-25T06:32:13;8.80;99.90
23803;DHT22;12082;51.786;6.018;2023-04-25T06:34:39;10.10;99.90
23803;DHT22;12082;51.786;6.018;2023-04-25T06:37:05;11.20;99.90
23803;DHT22;12082;51.786;6.018;2023-04-25T06:39:30;11.60;99.90
23803;DHT22;12082;51.786;6.018;2023-04-25T06:41:56;11.30;99.90
23803;DHT22;12082;51.786;6.018;2023-04-25T06:44:21;11.10;99.90
23803;DHT22;12082;51.786;6.018;2023-04-25T06:46:49;11.10;99.90
23803;DHT22;12082;51.786;6.018;2023-04-25T06:49:15;11.50;99.90
23803;DHT22;12082;51.786;6.018;2023-04-25T06:51:41;12.00;99.90
23803;DHT22;12082;51.786;6.018;2023-04-25T06:54:06;12.50;99.90
23803;DHT22;12082;51.786;6.018;2023-04-25T06:56:32;12.70;99.90
23803;DHT22;12082;51.786;6.018;2023-04-25T06:58:57;12.60;99.90
23803;DHT22;12082;51.786;6.018;2023-04-25T07:01:23;12.00;99.90
23803;DHT22;12082;51.786;6.018;2023-04-25T07:03:48;11.30;99.90
23803;DHT22;12082;51.786;6.018;2023-04-25T07:06:14;10.70;99.90
23803;DHT22;12082;51.786;6.018;2023-04-25T07:08:40;10.60;99.90
23803;DHT22;12082;51.786;6.018;2023-04-25T07:11:05;10.50;99.90
23803;DHT22;12082;51.786;6.018;2023-04-25T07:13:31;10.70;99.90
23803;DHT22;12082;51.786;6.018;2023-04-25T07:15:56;10.50;99.90
23803;DHT22;12082;51.786;6.018;2023-04-25T07:18:22;10.70;99.90
23803;DHT22;12082;51.786;6.018;2023-04-25T07:20:47;11.00;99.90
23803;DHT22;12082;51.786;6.018;2023-04-25T07:23:13;11.90;99.90
23803;DHT22;12082;51.786;6.018;2023-04-25T07:25:39;13.10;99.90
23803;DHT22;12082;51.786;6.018;2023-04-25T07:28:04;13.30;99.90
23803;DHT22;12082;51.786;6.018;2023-04-25T07:30:30;13.00;99.90
23803;DHT22;12082;51.786;6.018;2023-04-25T07:32:56;12.50;99.90
23803;DHT22;12082;51.786;6.018;2023-04-25T07:35:22;11.90;99.90
23803;DHT22;12082;51.786;6.018;2023-04-25T07:37:47;11.30;99.90
23803;DHT22;12082;51.786;6.018;2023-04-25T07:40:13;11.20;99.90
23803;DHT22;12082;51.786;6.018;2023-04-25T07:42:40;11.10;99.90
23803;DHT22;12082;51.786;6.018;2023-04-25T07:45:06;11.80;99.90
23803;DHT22;12082;51.786;6.018;2023-04-25T07:47:32;12.30;99.90
23803;DHT22;12082;51.786;6.018;2023-04-25T07:49:58;12.60;99.90
23803;DHT22;12082;51.786;6.018;2023-04-25T07:52:24;12.50;99.90
23803;DHT22;12082;51.786;6.018;2023-04-25T07:54:49;12.10;99.90
23803;DHT22;12082;51.786;6.018;2023-04-25T07:57:15;11.50;99.90
23803;DHT22;12082;51.786;6.018;2023-04-25T07:59:42;11.40;99.90
23803;DHT22;12082;51.786;6.018;2023-04-25T08:02:07;11.60;99.90
23803;DHT22;12082;51.786;6.018;2023-04-25T08:04:33;12.00;99.90
23803;DHT22;12082;51.786;6.018;2023-04-25T08:06:58;12.20;99.90
23803;DHT22;12082;51.786;6.018;2023-04-25T08:09:25;12.20;99.90
23803;DHT22;12082;51.786;6.018;2023-04-25T08:11:50;12.10;99.90
23803;DHT22;12082;51.786;6.018;2023-04-25T08:14:16;12.00;99.90
23803;DHT22;12082;51.786;6.018;2023-04-25T08:16:41;11.40;99.90
23803;DHT22;12082;51.786;6.018;2023-04-25T08:19:07;10.60;99.90
23803;DHT22;12082;51.786;6.018;2023-04-25T08:21:33;10.10;99.90
23803;DHT22;12082;51.786;6.018;2023-04-25T08:23:58;9.70;99.90
23803;DHT22;12082;51.786;6.018;2023-04-25T08:26:25;9.50;99.90
23803;DHT22;12082;51.786;6.018;2023-04-25T08:28:51;9.40;99.90
23803;DHT22;12082;51.786;6.018;2023-04-25T08:31:16;9.90;99.90
23803;DHT22;12082;51.786;6.018;2023-04-25T08:33:42;10.40;99.90
23803;DHT22;12082;51.786;6.018;2023-04-25T08:36:08;10.50;99.90
23803;DHT22;12082;51.786;6.018;2023-04-25T08:38:33;10.70;99.90
23803;DHT22;12082;51.786;6.018;2023-04-25T08:41:00;10.40;99.90
23803;DHT22;12082;51.786;6.018;2023-04-25T08:43:29;10.00;99.90
23803;DHT22;12082;51.786;6.018;2023-04-25T08:45:59;9.60;99.90
23803;DHT22;12082;51.786;6.018;2023-04-25T08:48:27;9.30;99.90
23803;DHT22;12082;51.786;6.018;2023-04-25T08:50:54;9.10;99.90
23803;DHT22;12082;51.786;6.018;2023-04-25T08:53:25;9.00;99.90
23803;DHT22;12082;51.786;6.018;2023-04-25T08:55:51;8.90;99.90
23803;DHT22;12082;51.786;6.018;2023-04-25T08:58:19;8.80;99.90
23803;DHT22;12082;51.786;6.018;2023-04-25T09:00:46;8.90;99.90
23803;DHT22;12082;51.786;6.018;2023-04-25T09:03:12;9.50;99.90
23803;DHT22;12082;51.786;6.018;2023-04-25T09:05:40;10.30;99.90
23803;DHT22;12082;51.786;6.018;2023-04-25T09:08:05;10.50;99.90
23803;DHT22;12082;51.786;6.018;2023-04-25T09:10:31;10.90;99.90
23803;DHT22;12082;51.786;6.018;2023-04-25T09:13:12;10.90;99.90
23803;DHT22;12082;51.786;6.018;2023-04-25T09:15:51;10.80;99.90
23803;DHT22;12082;51.786;6.018;2023-04-25T09:18:28;11.10;99.90
23803;DHT22;12082;51.786;6.018;2023-04-25T09:20:55;11.30;99.90
23803;DHT22;12082;51.786;6.018;2023-04-25T09:23:22;11.30;99.90
23803;DHT22;12082;51.786;6.018;2023-04-25T09:25:49;11.20;99.90
23803;DHT22;12082;51.786;6.018;2023-04-25T09:28:15;11.30;99.90
23803;DHT22;12082;51.786;6.018;2023-04-25T09:30:42;11.10;99.90
23803;DHT22;12082;51.786;6.018;2023-04-25T09:33:09;10.90;99.90
23803;DHT22;12082;51.786;6.018;2023-04-25T09:35:40;10.80;99.90
23803;DHT22;12082;51.786;6.018;2023-04-25T09:38:12;10.50;99.90
23803;DHT22;12082;51.786;6.018;2023-04-25T09:40:46;10.10;99.90
23803;DHT22;12082;51.786;6.018;2023-04-25T09:43:19;10.10;99.90
23803;DHT22;12082;51.786;6.018;2023-04-25T09:45:46;10.50;99.90
23803;DHT22;12082;51.786;6.018;2023-04-25T09:48:20;11.00;99.90
23803;DHT22;12082;51.786;6.018;2023-04-25T09:51:08;10.90;99.90
23803;DHT22;12082;51.786;6.018;2023-04-25T09:53:39;10.60;99.90
23803;DHT22;12082;51.786;6.018;2023-04-25T09:56:06;10.30;99.90
23803;DHT22;12082;51.786;6.018;2023-04-25T09:58:33;10.30;99.90
23803;DHT22;12082;51.786;6.018;2023-04-25T10:01:03;10.50;99.90
23803;DHT22;12082;51.786;6.018;2023-04-25T10:03:30;10.40;99.90
23803;DHT22;12082;51.786;6.018;2023-04-25T10:05:59;9.90;99.90
23803;DHT22;12082;51.786;6.018;2023-04-25T10:08:33;9.50;99.90
23803;DHT22;12082;51.786;6.018;2023-04-25T10:11:01;9.30;99.90
23803;DHT22;12082;51.786;6.018;2023-04-25T10:13:29;9.20;99.90
23803;DHT22;12082;51.786;6.018;2023-04-25T10:16:00;9.30;99.90
23803;DHT22;12082;51.786;6.018;2023-04-25T10:18:27;9.30;99.90
23803;DHT22;12082;51.786;6.018;2023-04-25T10:20:58;9.50;99.90
23803;DHT22;12082;51.786;6.018;2023-04-25T10:23:24;9.50;99.90
23803;DHT22;12082;51.786;6.018;2023-04-25T10:25:51;9.70;99.90
23803;DHT22;12082;51.786;6.018;2023-04-25T10:28:18;9.60;99.90
23803;DHT22;12082;51.786;6.018;2023-04-25T10:31:00;9.40;99.90
23803;DHT22;12082;51.786;6.018;2023-04-25T10:33:33;9.50;99.90
23803;DHT22;12082;51.786;6.018;2023-04-25T10:36:09;9.80;99.90
23803;DHT22;12082;51.786;6.018;2023-04-25T10:38:35;10.10;99.90
23803;DHT22;12082;51.786;6.018;2023-04-25T10:41:05;10.20;99.90
23803;DHT22;12082;51.786;6.018;2023-04-25T10:43:41;10.30;99.90
23803;DHT22;12082;51.786;6.018;2023-04-25T10:46:21;10.40;99.90
23803;DHT22;12082;51.786;6.018;2023-04-25T10:51:26;10.60;99.90
23803;DHT22;12082;51.786;6.018;2023-04-25T10:56:22;10.80;99.90
23803;DHT22;12082;51.786;6.018;2023-04-25T10:58:48;10.90;99.90
23803;DHT22;12082;51.786;6.018;2023-04-25T11:01:19;11.10;99.90
23803;DHT22;12082;51.786;6.018;2023-04-25T11:03:45;11.50;99.90
23803;DHT22;12082;51.786;6.018;2023-04-25T11:09:10;11.50;99.90
23803;DHT22;12082;51.786;6.018;2023-04-25T11:11:38;11.00;99.90
23803;DHT22;12082;51.786;6.018;2023-04-25T11:14:04;10.50;99.90
23803;DHT22;12082;51.786;6.018;2023-04-25T11:16:29;10.00;99.90
23803;DHT22;12082;51.786;6.018;2023-04-25T11:18:57;9.80;99.90
23803;DHT22;12082;51.786;6.018;2023-04-25T11:21:23;9.80;99.90
23803;DHT22;12082;51.786;6.018;2023-04-25T11:23:51;9.80;99.90
23803;DHT22;12082;51.786;6.018;2023-04-25T11:26:19;9.80;99.90
23803;DHT22;12082;51.786;6.018;2023-04-25T11:28:45;10.00;99.90
23803;DHT22;12082;51.786;6.018;2023-04-25T11:31:11;10.20;99.90
23803;DHT22;12082;51.786;6.018;2023-04-25T11:33:37;11.50;99.90
23803;DHT22;12082;51.786;6.018;2023-04-25T11:36:02;10.40;99.90
23803;DHT22;12082;51.786;6.018;2023-04-25T11:38:28;10.70;99.90
23803;DHT22;12082;51.786;6.018;2023-04-25T11:40:53;11.00;99.90
23803;DHT22;12082;51.786;6.018;2023-04-25T11:43:22;11.10;99.90
23803;DHT22;12082;51.786;6.018;2023-04-25T11:45:51;11.00;99.90
23803;DHT22;12082;51.786;6.018;2023-04-25T11:48:18;11.50;99.90
23803;DHT22;12082;51.786;6.018;2023-04-25T11:50:43;10.80;99.90
23803;DHT22;12082;51.786;6.018;2023-04-25T11:53:09;11.00;99.90
23803;DHT22;12082;51.786;6.018;2023-04-25T11:55:36;10.90;99.90
23803;DHT22;12082;51.786;6.018;2023-04-25T11:58:03;11.00;99.90
23803;DHT22;12082;51.786;6.018;2023-04-25T12:00:29;11.00;99.90
23803;DHT22;12082;51.786;6.018;2023-04-25T12:02:56;11.00;99.90
23803;DHT22;12082;51.786;6.018;2023-04-25T12:05:28;10.90;99.90
23803;DHT22;12082;51.786;6.018;2023-04-25T12:07:54;11.00;99.90
23803;DHT22;12082;51.786;6.018;2023-04-25T12:10:20;11.00;99.90
23803;DHT22;12082;51.786;6.018;2023-04-25T12:12:47;11.00;99.90
23803;DHT22;12082;51.786;6.018;2023-04-25T12:15:14;11.10;99.90
23803;DHT22;12082;51.786;6.018;2023-04-25T12:17:44;11.00;99.90
23803;DHT22;12082;51.786;6.018;2023-04-25T12:20:15;11.00;99.90
23803;DHT22;12082;51.786;6.018;2023-04-25T12:22:43;11.10;99.90
23803;DHT22;12082;51.786;6.018;2023-04-25T12:25:11;11.20;99.90
23803;DHT22;12082;51.786;6.018;2023-04-25T12:27:36;11.20;99.90
23803;DHT22;12082;51.786;6.018;2023-04-25T12:30:02;11.20;99.90
23803;DHT22;12082;51.786;6.018;2023-04-25T12:32:29;11.30;99.90
23803;DHT22;12082;51.786;6.018;2023-04-25T12:34:54;11.40;99.90
23803;DHT22;12082;51.786;6.018;2023-04-25T12:37:21;11.40;99.90
23803;DHT22;12082;51.786;6.018;2023-04-25T12:39:46;11.40;99.90
23803;DHT22;12082;51.786;6.018;2023-04-25T12:42:12;11.50;99.90
23803;DHT22;12082;51.786;6.018;2023-04-25T12:44:38;11.80;99.90
23803;DHT22;12082;51.786;6.018;2023-04-25T12:47:04;11.80;99.90
23803;DHT22;12082;51.786;6.018;2023-04-25T12:49:30;11.80;99.90
23803;DHT22;12082;51.786;6.018;2023-04-25T12:51:56;11.90;99.90
23803;DHT22;12082;51.786;6.018;2023-04-25T12:54:21;11.70;99.90
23803;DHT22;12082;51.786;6.018;2023-04-25T12:56:47;11.30;99.90
23803;DHT22;12082;51.786;6.018;2023-04-25T12:59:13;10.90;99.90
23803;DHT22;12082;51.786;6.018;2023-04-25T13:01:38;10.70;99.90
23803;DHT22;12082;51.786;6.018;2023-04-25T13:04:04;10.60;99.90
23803;DHT22;12082;51.786;6.018;2023-04-25T13:06:30;10.40;99.90
23803;DHT22;12082;51.786;6.018;2023-04-25T13:08:56;10.30;99.90
23803;DHT22;12082;51.786;6.018;2023-04-25T13:11:21;10.40;99.90
23803;DHT22;12082;51.786;6.018;2023-04-25T13:13:47;10.60;99.90
23803;DHT22;12082;51.786;6.018;2023-04-25T13:16:12;10.60;99.90
23803;DHT22;12082;51.786;6.018;2023-04-25T13:18:41;10.50;99.90
23803;DHT22;12082;51.786;6.018;2023-04-25T13:21:07;10.70;99.90
23803;DHT22;12082;51.786;6.018;2023-04-25T13:23:34;11.30;99.90
23803;DHT22;12082;51.786;6.018;2023-04-25T13:25:59;11.70;99.90
23803;DHT22;12082;51.786;6.018;2023-04-25T13:28:27;12.00;99.90
23803;DHT22;12082;51.786;6.018;2023-04-25T13:30:53;12.20;99.90
23803;DHT22;12082;51.786;6.018;2023-04-25T13:33:19;12.10;99.90
23803;DHT22;12082;51.786;6.018;2023-04-25T13:35:46;12.10;99.90
23803;DHT22;12082;51.786;6.018;2023-04-25T13:38:12;12.00;99.90
23803;DHT22;12082;51.786;6.018;2023-04-25T13:40:38;11.90;99.90
23803;DHT22;12082;51.786;6.018;2023-04-25T13:43:04;10.40;99.90
23803;DHT22;12082;51.786;6.018;2023-04-25T13:45:31;11.90;99.90
23803;DHT22;12082;51.786;6.018;2023-04-25T13:47:57;11.80;99.90
23803;DHT22;12082;51.786;6.018;2023-04-25T13:50:23;11.60;99.90
23803;DHT22;12082;51.786;6.018;2023-04-25T13:52:48;11.70;99.90
23803;DHT22;12082;51.786;6.018;2023-04-25T13:55:14;11.80;99.90
23803;DHT22;12082;51.786;6.018;2023-04-25T13:57:40;11.80;99.90
23803;DHT22;12082;51.786;6.018;2023-04-25T14:00:07;11.90;99.90
23803;DHT22;12082;51.786;6.018;2023-04-25T14:02:37;12.10;99.90
23803;DHT22;12082;51.786;6.018;2023-04-25T14:05:06;12.30;99.90
23803;DHT22;12082;51.786;6.018;2023-04-25T14:07:33;11.90;99.90
23803;DHT22;12082;51.786;6.018;2023-04-25T14:10:00;12.00;99.90
23803;DHT22;12082;51.786;6.018;2023-04-25T14:12:26;11.90;99.90
23803;DHT22;12082;51.786;6.018;2023-04-25T14:14:52;12.30;99.90
23803;DHT22;12082;51.786;6.018;2023-04-25T14:17:19;12.50;99.90
23803;DHT22;12082;51.786;6.018;2023-04-25T14:19:44;12.50;99.90
23803;DHT22;12082;51.786;6.018;2023-04-25T14:22:13;12.30;99.90
23803;DHT22;12082;51.786;6.018;2023-04-25T14:24:39;12.00;99.90
23803;DHT22;12082;51.786;6.018;2023-04-25T14:27:04;12.00;99.90
23803;DHT22;12082;51.786;6.018;2023-04-25T14:29:30;12.30;99.90
23803;DHT22;12082;51.786;6.018;2023-04-25T14:31:56;12.50;99.90
23803;DHT22;12082;51.786;6.018;2023-04-25T14:34:23;12.70;99.90
23803;DHT22;12082;51.786;6.018;2023-04-25T14:36:49;13.00;99.90
23803;DHT22;12082;51.786;6.018;2023-04-25T14:39:15;13.20;99.90
23803;DHT22;12082;51.786;6.018;2023-04-25T14:41:40;13.30;99.90
23803;DHT22;12082;51.786;6.018;2023-04-25T14:44:06;13.20;99.90
23803;DHT22;12082;51.786;6.018;2023-04-25T14:46:31;13.00;99.90
23803;DHT22;12082;51.786;6.018;2023-04-25T14:48:57;13.10;99.90
23803;DHT22;12082;51.786;6.018;2023-04-25T14:51:23;13.00;99.90
23803;DHT22;12082;51.786;6.018;2023-04-25T14:53:48;13.00;99.90
23803;DHT22;12082;51.786;6.018;2023-04-25T14:56:14;13.00;99.90
23803;DHT22;12082;51.786;6.018;2023-04-25T14:58:40;13.10;99.90
23803;DHT22;12082;51.786;6.018;2023-04-25T15:01:06;12.60;99.90
23803;DHT22;12082;51.786;6.018;2023-04-25T15:03:32;12.00;99.90
23803;DHT22;12082;51.786;6.018;2023-04-25T15:05:57;11.50;99.90
23803;DHT22;12082;51.786;6.018;2023-04-25T15:08:23;11.50;99.90
23803;DHT22;12082;51.786;6.018;2023-04-25T15:10:49;11.80;99.90
23803;DHT22;12082;51.786;6.018;2023-04-25T15:13:15;11.90;99.90
23803;DHT22;12082;51.786;6.018;2023-04-25T15:15:40;12.20;99.90
23803;DHT22;12082;51.786;6.018;2023-04-25T15:18:06;12.40;99.90
23803;DHT22;12082;51.786;6.018;2023-04-25T15:20:32;12.10;99.90
23803;DHT22;12082;51.786;6.018;2023-04-25T15:22:57;12.10;99.90
23803;DHT22;12082;51.786;6.018;2023-04-25T15:25:23;12.00;99.90
23803;DHT22;12082;51.786;6.018;2023-04-25T15:27:49;12.00;99.90
23803;DHT22;12082;51.786;6.018;2023-04-25T15:30:17;12.00;99.90
23803;DHT22;12082;51.786;6.018;2023-04-25T15:32:46;12.10;99.90
23803;DHT22;12082;51.786;6.018;2023-04-25T15:35:13;11.50;99.90
23803;DHT22;12082;51.786;6.018;2023-04-25T15:37:39;12.40;99.90
23803;DHT22;12082;51.786;6.018;2023-04-25T15:40:11;12.00;99.90
23803;DHT22;12082;51.786;6.018;2023-04-25T15:45:09;11.50;99.90